Terminal Aerodrome Forecast
Issued by NWS

Home | Current Version | Previous Version | Text Only | Print | Product List | Glossary On
Versions: 1 2 3 4 5 6 7 8 9 10 11 12 13 14 15 16 17 18 19 20 21
000
FTUS46 KSEW 111300 AAA
TAFHQM
TAF AMD
KHQM 111332Z 1114/1212 00000KT 2SM BR OVC002
      TEMPO 1114/1117 6SM BR OVC005
     FM111700 25010KT P6SM SKC
     FM120500 25003KT 5SM BR OVC005=

USA.gov is the U.S. government's official web portal to all federal, state and local government web resources and services.